sensor_id;sensor_type;location;lat;lon;timestamp;P1;durP1;ratioP1;P2;durP2;ratioP2
7539;SDS011;3811;49.006;12.076;2022-10-22T00:02:13;19.80;;;14.83;;
7539;SDS011;3811;49.006;12.076;2022-10-22T00:04:45;17.87;;;15.10;;
7539;SDS011;3811;49.006;12.076;2022-10-22T00:07:12;24.50;;;14.53;;
7539;SDS011;3811;49.006;12.076;2022-10-22T00:09:39;20.10;;;14.10;;
7539;SDS011;3811;49.006;12.076;2022-10-22T00:12:06;19.17;;;14.60;;
7539;SDS011;3811;49.006;12.076;2022-10-22T00:14:34;19.50;;;14.03;;
7539;SDS011;3811;49.006;12.076;2022-10-22T00:17:01;22.17;;;14.53;;
7539;SDS011;3811;49.006;12.076;2022-10-22T00:19:28;17.80;;;14.10;;
7539;SDS011;3811;49.006;12.076;2022-10-22T00:21:57;18.80;;;14.10;;
7539;SDS011;3811;49.006;12.076;2022-10-22T00:24:24;18.10;;;14.47;;
7539;SDS011;3811;49.006;12.076;2022-10-22T00:26:51;17.87;;;14.17;;
7539;SDS011;3811;49.006;12.076;2022-10-22T00:29:18;18.53;;;14.03;;
7539;SDS011;3811;49.006;12.076;2022-10-22T00:31:46;20.30;;;14.63;;
7539;SDS011;3811;49.006;12.076;2022-10-22T00:34:15;18.33;;;14.00;;
7539;SDS011;3811;49.006;12.076;2022-10-22T00:36:42;17.77;;;14.47;;
7539;SDS011;3811;49.006;12.076;2022-10-22T00:39:27;16.67;;;14.20;;
7539;SDS011;3811;49.006;12.076;2022-10-22T00:41:55;18.33;;;14.47;;
7539;SDS011;3811;49.006;12.076;2022-10-22T00:47:28;18.10;;;15.40;;
7539;SDS011;3811;49.006;12.076;2022-10-22T00:49:57;17.97;;;14.23;;
7539;SDS011;3811;49.006;12.076;2022-10-22T00:52:25;20.00;;;13.87;;
7539;SDS011;3811;49.006;12.076;2022-10-22T00:54:54;21.83;;;14.83;;
7539;SDS011;3811;49.006;12.076;2022-10-22T00:57:22;20.47;;;14.57;;
7539;SDS011;3811;49.006;12.076;2022-10-22T00:59:50;19.57;;;13.77;;
7539;SDS011;3811;49.006;12.076;2022-10-22T01:02:17;23.13;;;15.33;;
7539;SDS011;3811;49.006;12.076;2022-10-22T01:04:44;20.47;;;13.93;;
7539;SDS011;3811;49.006;12.076;2022-10-22T01:07:14;17.27;;;14.00;;
7539;SDS011;3811;49.006;12.076;2022-10-22T01:09:45;20.20;;;15.53;;
7539;SDS011;3811;49.006;12.076;2022-10-22T01:12:26;16.50;;;14.43;;
7539;SDS011;3811;49.006;12.076;2022-10-22T01:15:03;21.33;;;14.33;;
7539;SDS011;3811;49.006;12.076;2022-10-22T01:17:38;18.43;;;14.40;;
7539;SDS011;3811;49.006;12.076;2022-10-22T01:20:15;19.90;;;14.43;;
7539;SDS011;3811;49.006;12.076;2022-10-22T01:22:54;20.57;;;14.27;;
7539;SDS011;3811;49.006;12.076;2022-10-22T01:25:30;18.80;;;14.40;;
7539;SDS011;3811;49.006;12.076;2022-10-22T01:28:04;22.97;;;15.33;;
7539;SDS011;3811;49.006;12.076;2022-10-22T01:30:43;22.73;;;15.67;;
7539;SDS011;3811;49.006;12.076;2022-10-22T01:33:14;17.13;;;13.87;;
7539;SDS011;3811;49.006;12.076;2022-10-22T01:35:44;19.87;;;14.53;;
7539;SDS011;3811;49.006;12.076;2022-10-22T01:38:13;20.13;;;15.33;;
7539;SDS011;3811;49.006;12.076;2022-10-22T01:40:42;22.07;;;15.40;;
7539;SDS011;3811;49.006;12.076;2022-10-22T01:43:10;21.53;;;14.13;;
7539;SDS011;3811;49.006;12.076;2022-10-22T01:45:38;18.70;;;14.63;;
7539;SDS011;3811;49.006;12.076;2022-10-22T01:48:13;21.27;;;15.43;;
7539;SDS011;3811;49.006;12.076;2022-10-22T01:50:50;20.73;;;15.60;;
7539;SDS011;3811;49.006;12.076;2022-10-22T01:53:32;19.90;;;15.10;;
7539;SDS011;3811;49.006;12.076;2022-10-22T01:56:14;22.93;;;15.90;;
7539;SDS011;3811;49.006;12.076;2022-10-22T01:58:59;24.47;;;15.57;;
7539;SDS011;3811;49.006;12.076;2022-10-22T02:01:35;19.97;;;15.70;;
7539;SDS011;3811;49.006;12.076;2022-10-22T02:04:14;20.27;;;15.43;;
7539;SDS011;3811;49.006;12.076;2022-10-22T02:06:45;21.07;;;15.80;;
7539;SDS011;3811;49.006;12.076;2022-10-22T02:11:54;22.10;;;15.97;;
7539;SDS011;3811;49.006;12.076;2022-10-22T02:14:23;20.70;;;15.03;;
7539;SDS011;3811;49.006;12.076;2022-10-22T02:16:53;20.37;;;15.27;;
7539;SDS011;3811;49.006;12.076;2022-10-22T02:19:25;16.57;;;14.20;;
7539;SDS011;3811;49.006;12.076;2022-10-22T02:21:53;18.73;;;14.93;;
7539;SDS011;3811;49.006;12.076;2022-10-22T02:24:20;18.60;;;15.33;;
7539;SDS011;3811;49.006;12.076;2022-10-22T02:26:51;21.33;;;15.93;;
7539;SDS011;3811;49.006;12.076;2022-10-22T02:29:24;18.67;;;15.67;;
7539;SDS011;3811;49.006;12.076;2022-10-22T02:31:55;21.57;;;16.90;;
7539;SDS011;3811;49.006;12.076;2022-10-22T02:34:28;22.47;;;16.57;;
7539;SDS011;3811;49.006;12.076;2022-10-22T02:37:06;22.83;;;15.93;;
7539;SDS011;3811;49.006;12.076;2022-10-22T02:39:34;21.97;;;16.73;;
7539;SDS011;3811;49.006;12.076;2022-10-22T02:42:02;22.30;;;16.00;;
7539;SDS011;3811;49.006;12.076;2022-10-22T02:44:29;20.10;;;15.57;;
7539;SDS011;3811;49.006;12.076;2022-10-22T02:46:56;21.50;;;15.93;;
7539;SDS011;3811;49.006;12.076;2022-10-22T02:49:24;19.20;;;15.80;;
7539;SDS011;3811;49.006;12.076;2022-10-22T02:51:53;20.43;;;16.00;;
7539;SDS011;3811;49.006;12.076;2022-10-22T02:54:20;21.40;;;15.80;;
7539;SDS011;3811;49.006;12.076;2022-10-22T02:56:47;21.37;;;16.10;;
7539;SDS011;3811;49.006;12.076;2022-10-22T02:59:14;20.00;;;15.70;;
7539;SDS011;3811;49.006;12.076;2022-10-22T03:01:41;20.37;;;16.73;;
7539;SDS011;3811;49.006;12.076;2022-10-22T03:04:08;22.37;;;16.60;;
7539;SDS011;3811;49.006;12.076;2022-10-22T03:06:35;19.57;;;16.23;;
7539;SDS011;3811;49.006;12.076;2022-10-22T03:09:03;20.33;;;15.73;;
7539;SDS011;3811;49.006;12.076;2022-10-22T03:11:30;20.53;;;15.80;;
7539;SDS011;3811;49.006;12.076;2022-10-22T03:13:57;19.83;;;15.43;;
7539;SDS011;3811;49.006;12.076;2022-10-22T03:16:24;19.70;;;14.83;;
7539;SDS011;3811;49.006;12.076;2022-10-22T03:18:51;25.47;;;16.03;;
7539;SDS011;3811;49.006;12.076;2022-10-22T03:21:20;20.73;;;15.77;;
7539;SDS011;3811;49.006;12.076;2022-10-22T03:23:53;24.70;;;16.37;;
7539;SDS011;3811;49.006;12.076;2022-10-22T03:26:22;18.83;;;16.30;;
7539;SDS011;3811;49.006;12.076;2022-10-22T03:28:49;21.47;;;15.53;;
7539;SDS011;3811;49.006;12.076;2022-10-22T03:31:17;23.10;;;16.87;;
7539;SDS011;3811;49.006;12.076;2022-10-22T03:33:44;21.60;;;15.73;;
7539;SDS011;3811;49.006;12.076;2022-10-22T03:36:11;22.07;;;16.93;;
7539;SDS011;3811;49.006;12.076;2022-10-22T03:38:38;20.80;;;16.67;;
7539;SDS011;3811;49.006;12.076;2022-10-22T03:41:06;20.67;;;16.87;;
7539;SDS011;3811;49.006;12.076;2022-10-22T03:43:36;24.13;;;16.10;;
7539;SDS011;3811;49.006;12.076;2022-10-22T03:46:04;19.27;;;15.40;;
7539;SDS011;3811;49.006;12.076;2022-10-22T03:48:36;21.37;;;16.27;;
7539;SDS011;3811;49.006;12.076;2022-10-22T03:51:03;18.93;;;15.23;;
7539;SDS011;3811;49.006;12.076;2022-10-22T03:53:30;21.40;;;16.17;;
7539;SDS011;3811;49.006;12.076;2022-10-22T03:55:57;20.60;;;15.67;;
7539;SDS011;3811;49.006;12.076;2022-10-22T03:58:24;21.60;;;15.87;;
7539;SDS011;3811;49.006;12.076;2022-10-22T04:00:52;19.77;;;15.40;;
7539;SDS011;3811;49.006;12.076;2022-10-22T04:03:19;20.70;;;15.57;;
7539;SDS011;3811;49.006;12.076;2022-10-22T04:05:46;20.17;;;15.37;;
7539;SDS011;3811;49.006;12.076;2022-10-22T04:08:13;23.77;;;16.00;;
7539;SDS011;3811;49.006;12.076;2022-10-22T04:10:40;21.20;;;15.77;;
7539;SDS011;3811;49.006;12.076;2022-10-22T04:13:08;22.60;;;15.80;;
7539;SDS011;3811;49.006;12.076;2022-10-22T04:15:34;20.10;;;15.33;;
7539;SDS011;3811;49.006;12.076;2022-10-22T04:18:03;19.37;;;15.07;;
7539;SDS011;3811;49.006;12.076;2022-10-22T04:20:30;18.53;;;14.23;;
7539;SDS011;3811;49.006;12.076;2022-10-22T04:22:57;17.97;;;14.67;;
7539;SDS011;3811;49.006;12.076;2022-10-22T04:25:25;17.50;;;14.90;;
7539;SDS011;3811;49.006;12.076;2022-10-22T04:27:52;18.23;;;14.17;;
7539;SDS011;3811;49.006;12.076;2022-10-22T04:30:19;21.03;;;15.27;;
7539;SDS011;3811;49.006;12.076;2022-10-22T04:32:46;23.47;;;15.63;;
7539;SDS011;3811;49.006;12.076;2022-10-22T04:35:14;22.37;;;15.70;;
7539;SDS011;3811;49.006;12.076;2022-10-22T04:37:41;20.03;;;15.73;;
7539;SDS011;3811;49.006;12.076;2022-10-22T04:40:09;19.50;;;15.17;;
7539;SDS011;3811;49.006;12.076;2022-10-22T04:42:37;22.33;;;16.40;;
7539;SDS011;3811;49.006;12.076;2022-10-22T04:45:04;19.33;;;15.33;;
7539;SDS011;3811;49.006;12.076;2022-10-22T04:47:32;20.17;;;16.20;;
7539;SDS011;3811;49.006;12.076;2022-10-22T04:49:59;22.93;;;16.60;;
7539;SDS011;3811;49.006;12.076;2022-10-22T04:52:27;18.80;;;15.33;;
7539;SDS011;3811;49.006;12.076;2022-10-22T04:54:56;18.87;;;15.53;;
7539;SDS011;3811;49.006;12.076;2022-10-22T04:57:23;19.30;;;15.87;;
7539;SDS011;3811;49.006;12.076;2022-10-22T04:59:51;21.83;;;15.57;;
7539;SDS011;3811;49.006;12.076;2022-10-22T05:02:17;23.67;;;15.77;;
7539;SDS011;3811;49.006;12.076;2022-10-22T05:04:45;20.97;;;15.60;;
7539;SDS011;3811;49.006;12.076;2022-10-22T05:07:12;21.40;;;15.40;;
7539;SDS011;3811;49.006;12.076;2022-10-22T05:09:41;20.40;;;15.63;;
7539;SDS011;3811;49.006;12.076;2022-10-22T05:12:08;18.07;;;15.03;;
7539;SDS011;3811;49.006;12.076;2022-10-22T05:14:35;21.07;;;15.07;;
7539;SDS011;3811;49.006;12.076;2022-10-22T05:17:02;24.73;;;15.53;;
7539;SDS011;3811;49.006;12.076;2022-10-22T05:19:29;25.13;;;17.20;;
7539;SDS011;3811;49.006;12.076;2022-10-22T05:21:58;24.20;;;16.23;;
7539;SDS011;3811;49.006;12.076;2022-10-22T05:24:26;26.80;;;17.30;;
7539;SDS011;3811;49.006;12.076;2022-10-22T05:26:56;25.83;;;16.97;;
7539;SDS011;3811;49.006;12.076;2022-10-22T05:29:24;27.30;;;16.90;;
7539;SDS011;3811;49.006;12.076;2022-10-22T05:31:52;26.00;;;15.70;;
7539;SDS011;3811;49.006;12.076;2022-10-22T05:34:18;24.50;;;15.47;;
7539;SDS011;3811;49.006;12.076;2022-10-22T05:36:45;29.10;;;16.83;;
7539;SDS011;3811;49.006;12.076;2022-10-22T05:39:12;25.37;;;16.10;;
7539;SDS011;3811;49.006;12.076;2022-10-22T05:41:39;23.57;;;15.63;;
7539;SDS011;3811;49.006;12.076;2022-10-22T05:44:09;22.57;;;14.93;;
7539;SDS011;3811;49.006;12.076;2022-10-22T05:46:37;24.77;;;15.20;;
7539;SDS011;3811;49.006;12.076;2022-10-22T05:49:05;23.13;;;15.30;;
7539;SDS011;3811;49.006;12.076;2022-10-22T05:51:33;21.13;;;12.97;;
7539;SDS011;3811;49.006;12.076;2022-10-22T05:54:02;19.07;;;13.13;;
7539;SDS011;3811;49.006;12.076;2022-10-22T05:56:32;18.10;;;13.00;;
7539;SDS011;3811;49.006;12.076;2022-10-22T05:58:59;21.23;;;13.50;;
7539;SDS011;3811;49.006;12.076;2022-10-22T06:01:29;17.63;;;12.73;;
7539;SDS011;3811;49.006;12.076;2022-10-22T06:04:00;15.03;;;12.00;;
7539;SDS011;3811;49.006;12.076;2022-10-22T06:06:30;18.33;;;13.03;;
7539;SDS011;3811;49.006;12.076;2022-10-22T06:09:00;18.57;;;12.00;;
7539;SDS011;3811;49.006;12.076;2022-10-22T06:11:30;15.47;;;11.87;;
7539;SDS011;3811;49.006;12.076;2022-10-22T06:13:58;15.63;;;12.10;;
7539;SDS011;3811;49.006;12.076;2022-10-22T06:16:28;17.10;;;12.30;;
7539;SDS011;3811;49.006;12.076;2022-10-22T06:19:00;17.03;;;11.77;;
7539;SDS011;3811;49.006;12.076;2022-10-22T06:21:31;15.93;;;12.03;;
7539;SDS011;3811;49.006;12.076;2022-10-22T06:23:58;16.10;;;11.97;;
7539;SDS011;3811;49.006;12.076;2022-10-22T06:26:27;21.53;;;14.27;;
7539;SDS011;3811;49.006;12.076;2022-10-22T06:28:54;18.60;;;13.73;;
7539;SDS011;3811;49.006;12.076;2022-10-22T06:31:22;18.03;;;14.33;;
7539;SDS011;3811;49.006;12.076;2022-10-22T06:33:51;19.10;;;14.63;;
7539;SDS011;3811;49.006;12.076;2022-10-22T06:36:19;19.30;;;14.13;;
7539;SDS011;3811;49.006;12.076;2022-10-22T06:38:49;19.60;;;15.17;;
7539;SDS011;3811;49.006;12.076;2022-10-22T06:41:17;18.40;;;14.00;;
7539;SDS011;3811;49.006;12.076;2022-10-22T06:43:44;18.70;;;14.63;;
7539;SDS011;3811;49.006;12.076;2022-10-22T06:46:12;19.50;;;14.90;;
7539;SDS011;3811;49.006;12.076;2022-10-22T06:48:41;18.43;;;14.80;;
7539;SDS011;3811;49.006;12.076;2022-10-22T06:51:10;19.87;;;14.97;;
7539;SDS011;3811;49.006;12.076;2022-10-22T06:53:37;18.50;;;13.40;;
7539;SDS011;3811;49.006;12.076;2022-10-22T06:56:05;17.27;;;13.33;;
7539;SDS011;3811;49.006;12.076;2022-10-22T06:58:33;17.27;;;13.27;;
7539;SDS011;3811;49.006;12.076;2022-10-22T07:01:02;17.10;;;12.97;;
7539;SDS011;3811;49.006;12.076;2022-10-22T07:03:30;17.67;;;13.70;;
7539;SDS011;3811;49.006;12.076;2022-10-22T07:05:58;16.97;;;12.30;;
7539;SDS011;3811;49.006;12.076;2022-10-22T07:08:27;19.97;;;13.10;;
7539;SDS011;3811;49.006;12.076;2022-10-22T07:10:56;20.57;;;14.47;;
7539;SDS011;3811;49.006;12.076;2022-10-22T07:13:31;21.77;;;16.67;;
7539;SDS011;3811;49.006;12.076;2022-10-22T07:15:58;23.17;;;17.77;;
7539;SDS011;3811;49.006;12.076;2022-10-22T07:18:26;19.40;;;14.87;;
7539;SDS011;3811;49.006;12.076;2022-10-22T07:20:54;12.23;;;8.30;;
7539;SDS011;3811;49.006;12.076;2022-10-22T07:23:21;10.57;;;7.97;;
7539;SDS011;3811;49.006;12.076;2022-10-22T07:25:49;10.80;;;6.80;;
7539;SDS011;3811;49.006;12.076;2022-10-22T07:28:16;7.37;;;6.67;;
7539;SDS011;3811;49.006;12.076;2022-10-22T07:30:44;10.03;;;7.87;;
7539;SDS011;3811;49.006;12.076;2022-10-22T07:33:12;7.07;;;6.37;;
7539;SDS011;3811;49.006;12.076;2022-10-22T07:35:40;7.43;;;6.13;;
7539;SDS011;3811;49.006;12.076;2022-10-22T07:38:10;7.23;;;5.77;;
7539;SDS011;3811;49.006;12.076;2022-10-22T07:40:38;7.33;;;5.70;;
7539;SDS011;3811;49.006;12.076;2022-10-22T07:43:07;8.63;;;4.90;;
7539;SDS011;3811;49.006;12.076;2022-10-22T07:45:35;5.90;;;4.80;;
7539;SDS011;3811;49.006;12.076;2022-10-22T07:48:02;5.83;;;5.03;;
7539;SDS011;3811;49.006;12.076;2022-10-22T07:50:30;9.00;;;5.00;;
7539;SDS011;3811;49.006;12.076;2022-10-22T07:52:57;5.87;;;5.17;;
7539;SDS011;3811;49.006;12.076;2022-10-22T07:55:24;6.23;;;5.07;;
7539;SDS011;3811;49.006;12.076;2022-10-22T07:57:51;5.50;;;4.93;;
7539;SDS011;3811;49.006;12.076;2022-10-22T08:00:20;5.10;;;4.33;;
7539;SDS011;3811;49.006;12.076;2022-10-22T08:02:47;5.50;;;4.67;;
7539;SDS011;3811;49.006;12.076;2022-10-22T08:05:14;6.80;;;5.03;;
7539;SDS011;3811;49.006;12.076;2022-10-22T08:07:41;5.67;;;4.70;;
7539;SDS011;3811;49.006;12.076;2022-10-22T08:10:09;5.10;;;4.60;;
7539;SDS011;3811;49.006;12.076;2022-10-22T08:12:38;6.43;;;5.30;;
7539;SDS011;3811;49.006;12.076;2022-10-22T08:15:06;10.93;;;5.87;;
7539;SDS011;3811;49.006;12.076;2022-10-22T08:17:35;6.37;;;5.50;;
7539;SDS011;3811;49.006;12.076;2022-10-22T08:20:02;8.03;;;5.80;;
7539;SDS011;3811;49.006;12.076;2022-10-22T08:22:29;7.57;;;5.50;;
7539;SDS011;3811;49.006;12.076;2022-10-22T08:24:57;5.77;;;5.20;;
7539;SDS011;3811;49.006;12.076;2022-10-22T08:27:24;7.20;;;6.33;;
7539;SDS011;3811;49.006;12.076;2022-10-22T08:29:52;6.30;;;5.60;;
7539;SDS011;3811;49.006;12.076;2022-10-22T08:32:19;7.43;;;5.50;;
7539;SDS011;3811;49.006;12.076;2022-10-22T08:34:47;6.00;;;5.50;;
7539;SDS011;3811;49.006;12.076;2022-10-22T08:37:14;5.70;;;4.93;;
7539;SDS011;3811;49.006;12.076;2022-10-22T08:39:42;4.90;;;4.40;;
7539;SDS011;3811;49.006;12.076;2022-10-22T08:42:16;6.77;;;4.70;;
7539;SDS011;3811;49.006;12.076;2022-10-22T08:45:07;5.57;;;5.07;;
7539;SDS011;3811;49.006;12.076;2022-10-22T08:47:44;6.97;;;5.57;;
7539;SDS011;3811;49.006;12.076;2022-10-22T08:50:29;5.37;;;4.97;;
7539;SDS011;3811;49.006;12.076;2022-10-22T08:53:01;6.67;;;5.83;;
7539;SDS011;3811;49.006;12.076;2022-10-22T08:55:41;5.07;;;4.57;;
7539;SDS011;3811;49.006;12.076;2022-10-22T08:58:11;5.47;;;4.37;;
7539;SDS011;3811;49.006;12.076;2022-10-22T09:00:45;4.40;;;3.97;;
7539;SDS011;3811;49.006;12.076;2022-10-22T09:03:26;4.30;;;3.90;;
7539;SDS011;3811;49.006;12.076;2022-10-22T09:06:02;4.10;;;3.70;;
7539;SDS011;3811;49.006;12.076;2022-10-22T09:08:36;5.43;;;3.37;;
7539;SDS011;3811;49.006;12.076;2022-10-22T09:11:05;4.07;;;3.70;;
7539;SDS011;3811;49.006;12.076;2022-10-22T09:13:40;3.70;;;3.40;;
7539;SDS011;3811;49.006;12.076;2022-10-22T09:16:14;3.50;;;3.20;;
7539;SDS011;3811;49.006;12.076;2022-10-22T09:18:46;4.63;;;3.40;;
7539;SDS011;3811;49.006;12.076;2022-10-22T09:21:28;3.27;;;2.97;;
7539;SDS011;3811;49.006;12.076;2022-10-22T09:24:04;4.90;;;3.97;;
7539;SDS011;3811;49.006;12.076;2022-10-22T09:26:37;3.97;;;3.67;;
7539;SDS011;3811;49.006;12.076;2022-10-22T09:29:06;3.80;;;3.50;;
7539;SDS011;3811;49.006;12.076;2022-10-22T09:31:40;3.77;;;3.40;;
7539;SDS011;3811;49.006;12.076;2022-10-22T09:34:07;3.77;;;3.47;;
7539;SDS011;3811;49.006;12.076;2022-10-22T09:36:35;4.77;;;3.80;;
7539;SDS011;3811;49.006;12.076;2022-10-22T09:39:03;3.33;;;3.13;;
7539;SDS011;3811;49.006;12.076;2022-10-22T09:41:30;3.57;;;3.27;;
7539;SDS011;3811;49.006;12.076;2022-10-22T09:43:57;3.63;;;3.33;;
7539;SDS011;3811;49.006;12.076;2022-10-22T09:46:26;3.50;;;3.20;;
7539;SDS011;3811;49.006;12.076;2022-10-22T09:48:58;3.30;;;3.07;;
7539;SDS011;3811;49.006;12.076;2022-10-22T09:51:39;4.00;;;2.90;;
7539;SDS011;3811;49.006;12.076;2022-10-22T09:54:13;3.87;;;3.23;;
7539;SDS011;3811;49.006;12.076;2022-10-22T09:56:46;4.47;;;2.63;;
7539;SDS011;3811;49.006;12.076;2022-10-22T09:59:24;3.83;;;3.07;;
7539;SDS011;3811;49.006;12.076;2022-10-22T10:01:58;5.27;;;3.20;;
7539;SDS011;3811;49.006;12.076;2022-10-22T10:04:27;2.97;;;2.77;;
7539;SDS011;3811;49.006;12.076;2022-10-22T10:07:01;2.73;;;2.50;;
7539;SDS011;3811;49.006;12.076;2022-10-22T10:09:29;2.20;;;2.10;;
7539;SDS011;3811;49.006;12.076;2022-10-22T10:12:01;8.10;;;2.93;;
7539;SDS011;3811;49.006;12.076;2022-10-22T10:14:39;2.90;;;2.70;;
7539;SDS011;3811;49.006;12.076;2022-10-22T10:17:14;2.57;;;2.37;;
7539;SDS011;3811;49.006;12.076;2022-10-22T10:19:50;6.53;;;2.87;;
7539;SDS011;3811;49.006;12.076;2022-10-22T10:22:40;2.83;;;2.60;;
7539;SDS011;3811;49.006;12.076;2022-10-22T10:28:14;8.83;;;2.80;;
7539;SDS011;3811;49.006;12.076;2022-10-22T10:30:49;2.90;;;2.70;;
7539;SDS011;3811;49.006;12.076;2022-10-22T10:33:25;4.10;;;3.70;;
7539;SDS011;3811;49.006;12.076;2022-10-22T10:36:01;5.27;;;3.50;;
7539;SDS011;3811;49.006;12.076;2022-10-22T10:38:36;3.23;;;3.00;;
7539;SDS011;3811;49.006;12.076;2022-10-22T10:41:12;3.03;;;2.83;;
7539;SDS011;3811;49.006;12.076;2022-10-22T10:43:49;2.40;;;2.20;;
7539;SDS011;3811;49.006;12.076;2022-10-22T10:46:38;2.67;;;2.43;;
7539;SDS011;3811;49.006;12.076;2022-10-22T10:49:15;2.80;;;2.07;;
7539;SDS011;3811;49.006;12.076;2022-10-22T10:51:46;2.20;;;1.93;;
7539;SDS011;3811;49.006;12.076;2022-10-22T10:54:26;3.83;;;1.67;;
7539;SDS011;3811;49.006;12.076;2022-10-22T10:57:01;1.70;;;1.60;;
7539;SDS011;3811;49.006;12.076;2022-10-22T10:59:40;3.47;;;1.60;;
7539;SDS011;3811;49.006;12.076;2022-10-22T11:05:19;2.10;;;1.43;;
7539;SDS011;3811;49.006;12.076;2022-10-22T11:07:54;2.60;;;1.83;;
7539;SDS011;3811;49.006;12.076;2022-10-22T11:10:26;3.70;;;1.80;;
7539;SDS011;3811;49.006;12.076;2022-10-22T11:12:59;5.60;;;1.50;;
7539;SDS011;3811;49.006;12.076;2022-10-22T11:15:31;9.13;;;2.93;;
7539;SDS011;3811;49.006;12.076;2022-10-22T11:18:02;2.10;;;1.77;;
7539;SDS011;3811;49.006;12.076;2022-10-22T11:20:44;2.30;;;1.80;;
7539;SDS011;3811;49.006;12.076;2022-10-22T11:23:17;2.73;;;1.47;;
7539;SDS011;3811;49.006;12.076;2022-10-22T11:25:54;2.97;;;2.03;;
7539;SDS011;3811;49.006;12.076;2022-10-22T11:28:22;3.40;;;2.53;;
7539;SDS011;3811;49.006;12.076;2022-10-22T11:30:57;4.37;;;2.47;;
7539;SDS011;3811;49.006;12.076;2022-10-22T11:33:27;2.00;;;1.80;;
7539;SDS011;3811;49.006;12.076;2022-10-22T11:36:08;2.03;;;1.53;;
7539;SDS011;3811;49.006;12.076;2022-10-22T11:38:37;3.13;;;1.53;;
7539;SDS011;3811;49.006;12.076;2022-10-22T11:41:07;3.97;;;1.67;;
7539;SDS011;3811;49.006;12.076;2022-10-22T11:43:50;2.83;;;1.70;;
7539;SDS011;3811;49.006;12.076;2022-10-22T11:46:27;3.13;;;1.40;;
7539;SDS011;3811;49.006;12.076;2022-10-22T11:49:02;2.37;;;1.30;;
7539;SDS011;3811;49.006;12.076;2022-10-22T11:51:41;1.10;;;1.10;;
7539;SDS011;3811;49.006;12.076;2022-10-22T11:54:30;1.67;;;1.40;;
7539;SDS011;3811;49.006;12.076;2022-10-22T11:57:21;1.70;;;1.07;;
7539;SDS011;3811;49.006;12.076;2022-10-22T11:59:53;1.07;;;1.00;;
7539;SDS011;3811;49.006;12.076;2022-10-22T12:02:31;1.77;;;1.10;;
7539;SDS011;3811;49.006;12.076;2022-10-22T12:08:15;4.00;;;1.80;;
7539;SDS011;3811;49.006;12.076;2022-10-22T12:10:53;1.70;;;1.60;;
7539;SDS011;3811;49.006;12.076;2022-10-22T12:13:25;1.37;;;1.20;;
7539;SDS011;3811;49.006;12.076;2022-10-22T12:15:57;1.03;;;1.00;;
7539;SDS011;3811;49.006;12.076;2022-10-22T12:18:34;1.37;;;1.27;;
7539;SDS011;3811;49.006;12.076;2022-10-22T12:21:08;4.03;;;1.13;;
7539;SDS011;3811;49.006;12.076;2022-10-22T12:23:38;2.37;;;1.30;;
7539;SDS011;3811;49.006;12.076;2022-10-22T12:26:05;8.83;;;1.93;;
7539;SDS011;3811;49.006;12.076;2022-10-22T12:28:37;4.67;;;1.87;;
7539;SDS011;3811;49.006;12.076;2022-10-22T12:31:05;1.53;;;1.00;;
7539;SDS011;3811;49.006;12.076;2022-10-22T12:33:40;1.40;;;1.20;;
7539;SDS011;3811;49.006;12.076;2022-10-22T12:36:12;3.90;;;1.37;;
7539;SDS011;3811;49.006;12.076;2022-10-22T12:38:44;1.10;;;1.03;;
7539;SDS011;3811;49.006;12.076;2022-10-22T12:41:12;2.77;;;1.40;;
7539;SDS011;3811;49.006;12.076;2022-10-22T12:43:41;1.83;;;1.20;;
7539;SDS011;3811;49.006;12.076;2022-10-22T12:46:24;1.67;;;1.30;;
7539;SDS011;3811;49.006;12.076;2022-10-22T12:48:52;2.63;;;1.17;;
7539;SDS011;3811;49.006;12.076;2022-10-22T12:51:20;1.07;;;1.00;;
7539;SDS011;3811;49.006;12.076;2022-10-22T12:53:48;1.10;;;1.00;;
7539;SDS011;3811;49.006;12.076;2022-10-22T12:56:19;1.50;;;0.90;;
7539;SDS011;3811;49.006;12.076;2022-10-22T12:58:52;4.10;;;1.10;;
7539;SDS011;3811;49.006;12.076;2022-10-22T13:01:23;1.03;;;1.00;;
7539;SDS011;3811;49.006;12.076;2022-10-22T13:04:02;1.43;;;1.10;;
7539;SDS011;3811;49.006;12.076;2022-10-22T13:06:32;2.90;;;1.20;;
7539;SDS011;3811;49.006;12.076;2022-10-22T13:09:04;3.13;;;1.33;;
7539;SDS011;3811;49.006;12.076;2022-10-22T13:11:38;1.70;;;1.60;;
7539;SDS011;3811;49.006;12.076;2022-10-22T13:14:14;2.30;;;1.20;;
7539;SDS011;3811;49.006;12.076;2022-10-22T13:19:39;2.37;;;1.10;;
7539;SDS011;3811;49.006;12.076;2022-10-22T13:24:55;1.33;;;1.13;;
7539;SDS011;3811;49.006;12.076;2022-10-22T13:27:24;1.33;;;1.23;;
7539;SDS011;3811;49.006;12.076;2022-10-22T13:29:53;1.50;;;1.30;;
7539;SDS011;3811;49.006;12.076;2022-10-22T13:32:28;1.10;;;1.00;;
7539;SDS011;3811;49.006;12.076;2022-10-22T13:34:58;1.40;;;1.10;;
7539;SDS011;3811;49.006;12.076;2022-10-22T13:37:26;1.03;;;1.03;;
7539;SDS011;3811;49.006;12.076;2022-10-22T13:39:57;2.93;;;1.10;;
7539;SDS011;3811;49.006;12.076;2022-10-22T13:42:24;1.40;;;1.10;;
7539;SDS011;3811;49.006;12.076;2022-10-22T13:44:53;2.37;;;1.10;;
7539;SDS011;3811;49.006;12.076;2022-10-22T13:47:25;2.40;;;1.20;;
7539;SDS011;3811;49.006;12.076;2022-10-22T13:49:53;2.53;;;1.00;;
7539;SDS011;3811;49.006;12.076;2022-10-22T13:52:26;1.17;;;1.17;;
7539;SDS011;3811;49.006;12.076;2022-10-22T13:55:11;1.10;;;1.10;;
7539;SDS011;3811;49.006;12.076;2022-10-22T13:57:39;1.10;;;1.10;;
7539;SDS011;3811;49.006;12.076;2022-10-22T14:00:10;2.57;;;1.30;;
7539;SDS011;3811;49.006;12.076;2022-10-22T14:02:38;1.77;;;1.10;;
7539;SDS011;3811;49.006;12.076;2022-10-22T14:05:06;1.40;;;1.00;;
7539;SDS011;3811;49.006;12.076;2022-10-22T14:07:35;3.70;;;1.30;;
7539;SDS011;3811;49.006;12.076;2022-10-22T14:10:08;1.57;;;1.47;;
7539;SDS011;3811;49.006;12.076;2022-10-22T14:12:40;2.33;;;1.47;;
7539;SDS011;3811;49.006;12.076;2022-10-22T14:15:09;1.73;;;1.53;;
7539;SDS011;3811;49.006;12.076;2022-10-22T14:17:38;1.57;;;1.30;;
7539;SDS011;3811;49.006;12.076;2022-10-22T14:20:09;1.50;;;1.40;;
7539;SDS011;3811;49.006;12.076;2022-10-22T14:22:39;1.20;;;1.20;;
7539;SDS011;3811;49.006;12.076;2022-10-22T14:25:08;1.73;;;1.60;;
7539;SDS011;3811;49.006;12.076;2022-10-22T14:27:37;2.23;;;1.63;;
7539;SDS011;3811;49.006;12.076;2022-10-22T14:30:05;1.10;;;1.03;;
7539;SDS011;3811;49.006;12.076;2022-10-22T14:32:34;1.67;;;1.40;;
7539;SDS011;3811;49.006;12.076;2022-10-22T14:35:16;2.33;;;1.50;;
7539;SDS011;3811;49.006;12.076;2022-10-22T14:37:45;1.67;;;1.30;;
7539;SDS011;3811;49.006;12.076;2022-10-22T14:40:13;1.17;;;1.10;;
7539;SDS011;3811;49.006;12.076;2022-10-22T14:42:42;0.90;;;0.90;;
7539;SDS011;3811;49.006;12.076;2022-10-22T14:45:12;1.20;;;1.10;;
7539;SDS011;3811;49.006;12.076;2022-10-22T14:47:43;1.20;;;1.10;;
7539;SDS011;3811;49.006;12.076;2022-10-22T14:50:27;2.00;;;1.10;;
7539;SDS011;3811;49.006;12.076;2022-10-22T14:52:54;1.57;;;1.20;;
7539;SDS011;3811;49.006;12.076;2022-10-22T14:55:23;4.00;;;1.23;;
7539;SDS011;3811;49.006;12.076;2022-10-22T14:57:51;1.80;;;1.20;;
7539;SDS011;3811;49.006;12.076;2022-10-22T15:00:19;1.67;;;1.40;;
7539;SDS011;3811;49.006;12.076;2022-10-22T15:02:47;5.00;;;1.40;;
7539;SDS011;3811;49.006;12.076;2022-10-22T15:05:15;1.73;;;1.10;;
7539;SDS011;3811;49.006;12.076;2022-10-22T15:07:43;1.20;;;1.20;;
7539;SDS011;3811;49.006;12.076;2022-10-22T15:10:10;3.13;;;1.20;;
7539;SDS011;3811;49.006;12.076;2022-10-22T15:12:37;1.27;;;1.17;;
7539;SDS011;3811;49.006;12.076;2022-10-22T15:15:05;2.20;;;1.47;;
7539;SDS011;3811;49.006;12.076;2022-10-22T15:17:33;6.10;;;1.37;;
7539;SDS011;3811;49.006;12.076;2022-10-22T15:20:02;3.37;;;1.33;;
7539;SDS011;3811;49.006;12.076;2022-10-22T15:22:30;1.23;;;1.17;;
7539;SDS011;3811;49.006;12.076;2022-10-22T15:24:59;1.20;;;1.20;;
7539;SDS011;3811;49.006;12.076;2022-10-22T15:27:27;2.10;;;1.40;;
7539;SDS011;3811;49.006;12.076;2022-10-22T15:29:54;1.93;;;1.30;;